sensor_id;sensor_type;location;lat;lon;timestamp;temperature;humidity
24902;DHT22;31328;51.402;0.016;2024-03-08T00:01:23;6.90;99.90
24902;DHT22;31328;51.402;0.016;2024-03-08T00:03:50;6.80;99.90
24902;DHT22;31328;51.402;0.016;2024-03-08T00:06:18;6.80;99.90
24902;DHT22;31328;51.402;0.016;2024-03-08T00:08:44;6.80;99.90
24902;DHT22;31328;51.402;0.016;2024-03-08T00:11:10;6.80;99.90
24902;DHT22;31328;51.402;0.016;2024-03-08T00:13:37;6.70;99.90
24902;DHT22;31328;51.402;0.016;2024-03-08T00:16:03;6.70;99.90
24902;DHT22;31328;51.402;0.016;2024-03-08T00:18:30;6.70;99.90
24902;DHT22;31328;51.402;0.016;2024-03-08T00:20:56;6.70;99.90
24902;DHT22;31328;51.402;0.016;2024-03-08T00:23:22;6.60;99.90
24902;DHT22;31328;51.402;0.016;2024-03-08T00:25:49;6.60;99.90
24902;DHT22;31328;51.402;0.016;2024-03-08T00:28:15;6.60;99.90
24902;DHT22;31328;51.402;0.016;2024-03-08T00:30:43;6.60;99.90
24902;DHT22;31328;51.402;0.016;2024-03-08T00:33:09;6.60;99.90
24902;DHT22;31328;51.402;0.016;2024-03-08T00:35:35;6.60;99.90
24902;DHT22;31328;51.402;0.016;2024-03-08T00:38:02;6.50;99.90
24902;DHT22;31328;51.402;0.016;2024-03-08T00:40:28;6.50;99.90
24902;DHT22;31328;51.402;0.016;2024-03-08T00:42:55;6.50;99.90
24902;DHT22;31328;51.402;0.016;2024-03-08T00:45:21;6.50;99.90
24902;DHT22;31328;51.402;0.016;2024-03-08T00:47:49;6.50;99.90
24902;DHT22;31328;51.402;0.016;2024-03-08T00:50:16;6.50;99.90
24902;DHT22;31328;51.402;0.016;2024-03-08T00:52:42;6.50;99.90
24902;DHT22;31328;51.402;0.016;2024-03-08T00:55:08;6.50;99.90
24902;DHT22;31328;51.402;0.016;2024-03-08T00:57:36;6.50;99.90
24902;DHT22;31328;51.402;0.016;2024-03-08T01:00:04;6.50;99.90
24902;DHT22;31328;51.402;0.016;2024-03-08T01:02:35;6.50;99.90
24902;DHT22;31328;51.402;0.016;2024-03-08T01:05:02;6.50;99.90
24902;DHT22;31328;51.402;0.016;2024-03-08T01:07:28;6.50;99.90
24902;DHT22;31328;51.402;0.016;2024-03-08T01:09:55;6.50;99.90
24902;DHT22;31328;51.402;0.016;2024-03-08T01:12:21;6.50;99.90
24902;DHT22;31328;51.402;0.016;2024-03-08T01:14:48;6.50;99.90
24902;DHT22;31328;51.402;0.016;2024-03-08T01:17:14;6.50;99.90
24902;DHT22;31328;51.402;0.016;2024-03-08T01:19:40;6.60;99.90
24902;DHT22;31328;51.402;0.016;2024-03-08T01:22:06;6.60;99.90
24902;DHT22;31328;51.402;0.016;2024-03-08T01:24:33;6.60;99.90
24902;DHT22;31328;51.402;0.016;2024-03-08T01:27:00;6.70;99.90
24902;DHT22;31328;51.402;0.016;2024-03-08T01:29:27;6.70;99.90
24902;DHT22;31328;51.402;0.016;2024-03-08T01:31:56;6.70;99.90
24902;DHT22;31328;51.402;0.016;2024-03-08T01:34:22;6.70;99.90
24902;DHT22;31328;51.402;0.016;2024-03-08T01:36:51;6.70;99.90
24902;DHT22;31328;51.402;0.016;2024-03-08T01:39:18;6.80;99.90
24902;DHT22;31328;51.402;0.016;2024-03-08T01:41:44;6.80;99.90
24902;DHT22;31328;51.402;0.016;2024-03-08T01:44:10;6.80;99.90
24902;DHT22;31328;51.402;0.016;2024-03-08T01:46:37;6.80;99.90
24902;DHT22;31328;51.402;0.016;2024-03-08T01:49:04;6.80;99.90
24902;DHT22;31328;51.402;0.016;2024-03-08T01:51:30;6.80;99.90
24902;DHT22;31328;51.402;0.016;2024-03-08T01:53:57;6.80;99.90
24902;DHT22;31328;51.402;0.016;2024-03-08T01:56:24;6.80;99.90
24902;DHT22;31328;51.402;0.016;2024-03-08T01:58:51;6.80;99.90
24902;DHT22;31328;51.402;0.016;2024-03-08T02:01:18;6.80;99.90
24902;DHT22;31328;51.402;0.016;2024-03-08T02:03:45;6.80;99.90
24902;DHT22;31328;51.402;0.016;2024-03-08T02:06:12;6.80;99.90
24902;DHT22;31328;51.402;0.016;2024-03-08T02:08:42;6.80;99.90
24902;DHT22;31328;51.402;0.016;2024-03-08T02:11:10;6.70;99.90
24902;DHT22;31328;51.402;0.016;2024-03-08T02:13:36;6.70;99.90
24902;DHT22;31328;51.402;0.016;2024-03-08T02:16:03;6.70;99.90
24902;DHT22;31328;51.402;0.016;2024-03-08T02:18:30;6.70;99.90
24902;DHT22;31328;51.402;0.016;2024-03-08T02:20:59;6.70;99.90
24902;DHT22;31328;51.402;0.016;2024-03-08T02:23:26;6.70;99.90
24902;DHT22;31328;51.402;0.016;2024-03-08T02:25:54;6.60;99.90
24902;DHT22;31328;51.402;0.016;2024-03-08T02:28:21;6.70;99.90
24902;DHT22;31328;51.402;0.016;2024-03-08T02:30:48;6.60;99.90
24902;DHT22;31328;51.402;0.016;2024-03-08T02:33:16;6.60;99.90
24902;DHT22;31328;51.402;0.016;2024-03-08T02:35:44;6.60;99.90
24902;DHT22;31328;51.402;0.016;2024-03-08T02:38:17;6.60;99.90
24902;DHT22;31328;51.402;0.016;2024-03-08T02:40:45;6.50;99.90
24902;DHT22;31328;51.402;0.016;2024-03-08T02:43:13;6.50;99.90
24902;DHT22;31328;51.402;0.016;2024-03-08T02:45:44;6.50;99.90
24902;DHT22;31328;51.402;0.016;2024-03-08T02:48:14;6.50;99.90
24902;DHT22;31328;51.402;0.016;2024-03-08T02:50:42;6.50;99.90
24902;DHT22;31328;51.402;0.016;2024-03-08T02:53:11;6.40;99.90
24902;DHT22;31328;51.402;0.016;2024-03-08T02:55:38;6.40;99.90
24902;DHT22;31328;51.402;0.016;2024-03-08T02:58:05;6.40;99.90
24902;DHT22;31328;51.402;0.016;2024-03-08T03:00:34;6.30;99.90
24902;DHT22;31328;51.402;0.016;2024-03-08T03:03:01;6.30;99.90
24902;DHT22;31328;51.402;0.016;2024-03-08T03:05:29;6.30;99.90
24902;DHT22;31328;51.402;0.016;2024-03-08T03:07:56;6.30;99.90
24902;DHT22;31328;51.402;0.016;2024-03-08T03:10:22;6.20;99.90
24902;DHT22;31328;51.402;0.016;2024-03-08T03:12:49;6.20;99.90
24902;DHT22;31328;51.402;0.016;2024-03-08T03:15:15;6.20;99.90
24902;DHT22;31328;51.402;0.016;2024-03-08T03:17:48;6.20;99.90
24902;DHT22;31328;51.402;0.016;2024-03-08T03:20:17;6.20;99.90
24902;DHT22;31328;51.402;0.016;2024-03-08T03:22:52;6.20;99.90
24902;DHT22;31328;51.402;0.016;2024-03-08T03:25:21;6.20;99.90
24902;DHT22;31328;51.402;0.016;2024-03-08T03:28:01;6.10;99.90
24902;DHT22;31328;51.402;0.016;2024-03-08T03:30:28;6.10;99.90
24902;DHT22;31328;51.402;0.016;2024-03-08T03:33:00;6.10;99.90
24902;DHT22;31328;51.402;0.016;2024-03-08T03:35:27;6.10;99.90
24902;DHT22;31328;51.402;0.016;2024-03-08T03:37:55;6.10;99.90
24902;DHT22;31328;51.402;0.016;2024-03-08T03:40:32;6.10;99.90
24902;DHT22;31328;51.402;0.016;2024-03-08T03:42:59;6.00;99.90
24902;DHT22;31328;51.402;0.016;2024-03-08T03:45:25;6.00;99.90
24902;DHT22;31328;51.402;0.016;2024-03-08T03:47:52;6.00;99.90
24902;DHT22;31328;51.402;0.016;2024-03-08T03:50:19;6.00;99.90
24902;DHT22;31328;51.402;0.016;2024-03-08T03:52:49;6.00;99.90
24902;DHT22;31328;51.402;0.016;2024-03-08T03:55:15;6.00;99.90
24902;DHT22;31328;51.402;0.016;2024-03-08T03:57:42;6.00;99.90
24902;DHT22;31328;51.402;0.016;2024-03-08T04:00:09;6.00;99.90
24902;DHT22;31328;51.402;0.016;2024-03-08T04:02:41;6.00;99.90
24902;DHT22;31328;51.402;0.016;2024-03-08T04:05:08;6.00;99.90
24902;DHT22;31328;51.402;0.016;2024-03-08T04:07:35;6.00;99.90
24902;DHT22;31328;51.402;0.016;2024-03-08T04:10:03;6.00;99.90
24902;DHT22;31328;51.402;0.016;2024-03-08T04:12:30;6.00;99.90
24902;DHT22;31328;51.402;0.016;2024-03-08T04:14:56;6.00;99.90
24902;DHT22;31328;51.402;0.016;2024-03-08T04:17:23;6.00;99.90
24902;DHT22;31328;51.402;0.016;2024-03-08T04:19:50;6.00;99.90
24902;DHT22;31328;51.402;0.016;2024-03-08T04:22:17;6.00;99.90
24902;DHT22;31328;51.402;0.016;2024-03-08T04:24:46;6.00;99.90
24902;DHT22;31328;51.402;0.016;2024-03-08T04:27:13;6.00;99.90
24902;DHT22;31328;51.402;0.016;2024-03-08T04:29:40;6.00;99.90
24902;DHT22;31328;51.402;0.016;2024-03-08T04:32:09;6.00;99.90
24902;DHT22;31328;51.402;0.016;2024-03-08T04:34:36;6.00;99.90
24902;DHT22;31328;51.402;0.016;2024-03-08T04:37:02;6.00;99.90
24902;DHT22;31328;51.402;0.016;2024-03-08T04:39:31;5.90;99.90
24902;DHT22;31328;51.402;0.016;2024-03-08T04:42:01;6.00;99.90
24902;DHT22;31328;51.402;0.016;2024-03-08T04:44:30;6.00;99.90
24902;DHT22;31328;51.402;0.016;2024-03-08T04:46:57;6.00;99.90
24902;DHT22;31328;51.402;0.016;2024-03-08T04:49:24;6.00;99.90
24902;DHT22;31328;51.402;0.016;2024-03-08T04:51:50;6.00;99.90
24902;DHT22;31328;51.402;0.016;2024-03-08T04:54:17;6.00;99.90
24902;DHT22;31328;51.402;0.016;2024-03-08T04:56:43;6.00;99.90
24902;DHT22;31328;51.402;0.016;2024-03-08T04:59:09;6.00;99.90
24902;DHT22;31328;51.402;0.016;2024-03-08T05:01:35;6.00;99.90
24902;DHT22;31328;51.402;0.016;2024-03-08T05:04:04;6.00;99.90
24902;DHT22;31328;51.402;0.016;2024-03-08T05:06:31;6.00;99.90
24902;DHT22;31328;51.402;0.016;2024-03-08T05:08:58;6.00;99.90
24902;DHT22;31328;51.402;0.016;2024-03-08T05:11:24;6.00;99.90
24902;DHT22;31328;51.402;0.016;2024-03-08T05:13:51;6.00;99.90
24902;DHT22;31328;51.402;0.016;2024-03-08T05:16:17;6.00;99.90
24902;DHT22;31328;51.402;0.016;2024-03-08T05:18:43;6.00;99.90
24902;DHT22;31328;51.402;0.016;2024-03-08T05:21:10;5.90;99.90
24902;DHT22;31328;51.402;0.016;2024-03-08T05:23:36;6.00;99.90
24902;DHT22;31328;51.402;0.016;2024-03-08T05:26:04;6.00;99.90
24902;DHT22;31328;51.402;0.016;2024-03-08T05:28:31;6.00;99.90
24902;DHT22;31328;51.402;0.016;2024-03-08T05:30:57;6.00;99.90
24902;DHT22;31328;51.402;0.016;2024-03-08T05:33:23;6.00;99.90
24902;DHT22;31328;51.402;0.016;2024-03-08T05:35:50;6.00;99.90
24902;DHT22;31328;51.402;0.016;2024-03-08T05:38:16;6.00;99.90
24902;DHT22;31328;51.402;0.016;2024-03-08T05:40:43;6.00;99.90
24902;DHT22;31328;51.402;0.016;2024-03-08T05:43:09;6.00;99.90
24902;DHT22;31328;51.402;0.016;2024-03-08T05:45:35;6.00;99.90
24902;DHT22;31328;51.402;0.016;2024-03-08T05:48:01;6.00;99.90
24902;DHT22;31328;51.402;0.016;2024-03-08T05:50:28;6.00;99.90
24902;DHT22;31328;51.402;0.016;2024-03-08T05:52:54;6.00;99.90
24902;DHT22;31328;51.402;0.016;2024-03-08T05:55:21;6.00;99.90
24902;DHT22;31328;51.402;0.016;2024-03-08T05:57:48;6.00;99.90
24902;DHT22;31328;51.402;0.016;2024-03-08T06:00:15;5.90;99.90
24902;DHT22;31328;51.402;0.016;2024-03-08T06:02:42;5.90;99.90
24902;DHT22;31328;51.402;0.016;2024-03-08T06:05:12;5.90;99.90
24902;DHT22;31328;51.402;0.016;2024-03-08T06:07:38;5.90;99.90
24902;DHT22;31328;51.402;0.016;2024-03-08T06:10:12;5.90;99.90
24902;DHT22;31328;51.402;0.016;2024-03-08T06:12:39;5.90;99.90
24902;DHT22;31328;51.402;0.016;2024-03-08T06:15:08;5.90;99.90
24902;DHT22;31328;51.402;0.016;2024-03-08T06:17:38;5.90;99.90
24902;DHT22;31328;51.402;0.016;2024-03-08T06:20:05;5.90;99.90
24902;DHT22;31328;51.402;0.016;2024-03-08T06:22:40;5.90;99.90
24902;DHT22;31328;51.402;0.016;2024-03-08T06:25:11;5.90;99.90
24902;DHT22;31328;51.402;0.016;2024-03-08T06:27:41;5.90;99.90
24902;DHT22;31328;51.402;0.016;2024-03-08T06:30:09;5.90;99.90
24902;DHT22;31328;51.402;0.016;2024-03-08T06:32:36;5.90;99.90
24902;DHT22;31328;51.402;0.016;2024-03-08T06:35:06;5.90;99.90
24902;DHT22;31328;51.402;0.016;2024-03-08T06:37:33;5.90;99.90
24902;DHT22;31328;51.402;0.016;2024-03-08T06:40:00;5.90;99.90
24902;DHT22;31328;51.402;0.016;2024-03-08T06:42:27;5.90;99.90
24902;DHT22;31328;51.402;0.016;2024-03-08T06:44:54;5.90;99.90
24902;DHT22;31328;51.402;0.016;2024-03-08T06:47:25;5.80;99.90
24902;DHT22;31328;51.402;0.016;2024-03-08T06:49:52;5.90;99.90
24902;DHT22;31328;51.402;0.016;2024-03-08T06:52:18;5.90;99.90
24902;DHT22;31328;51.402;0.016;2024-03-08T06:54:44;5.90;99.90
24902;DHT22;31328;51.402;0.016;2024-03-08T06:57:11;5.90;99.90
24902;DHT22;31328;51.402;0.016;2024-03-08T06:59:37;5.90;99.90
24902;DHT22;31328;51.402;0.016;2024-03-08T07:02:04;5.90;99.90
24902;DHT22;31328;51.402;0.016;2024-03-08T07:04:30;5.90;99.90
24902;DHT22;31328;51.402;0.016;2024-03-08T07:06:57;5.90;99.90
24902;DHT22;31328;51.402;0.016;2024-03-08T07:09:24;6.00;99.90
24902;DHT22;31328;51.402;0.016;2024-03-08T07:11:51;6.00;99.90
24902;DHT22;31328;51.402;0.016;2024-03-08T07:14:24;6.00;99.90
24902;DHT22;31328;51.402;0.016;2024-03-08T07:16:50;6.00;99.90
24902;DHT22;31328;51.402;0.016;2024-03-08T07:19:20;6.00;99.90
24902;DHT22;31328;51.402;0.016;2024-03-08T07:21:47;6.00;99.90
24902;DHT22;31328;51.402;0.016;2024-03-08T07:24:14;6.10;99.90
24902;DHT22;31328;51.402;0.016;2024-03-08T07:26:43;6.10;99.90
24902;DHT22;31328;51.402;0.016;2024-03-08T07:29:10;6.10;99.90
24902;DHT22;31328;51.402;0.016;2024-03-08T07:31:36;6.10;99.90
24902;DHT22;31328;51.402;0.016;2024-03-08T07:34:08;6.10;99.90
24902;DHT22;31328;51.402;0.016;2024-03-08T07:36:34;6.20;99.90
24902;DHT22;31328;51.402;0.016;2024-03-08T07:39:01;6.20;99.90
24902;DHT22;31328;51.402;0.016;2024-03-08T07:41:28;6.20;99.90
24902;DHT22;31328;51.402;0.016;2024-03-08T07:43:57;6.30;99.90
24902;DHT22;31328;51.402;0.016;2024-03-08T07:46:23;6.30;99.90
24902;DHT22;31328;51.402;0.016;2024-03-08T07:48:49;6.30;99.90
24902;DHT22;31328;51.402;0.016;2024-03-08T07:51:16;6.40;99.90
24902;DHT22;31328;51.402;0.016;2024-03-08T07:53:44;6.40;99.90
24902;DHT22;31328;51.402;0.016;2024-03-08T07:56:10;6.40;99.90
24902;DHT22;31328;51.402;0.016;2024-03-08T07:58:39;6.50;99.90
24902;DHT22;31328;51.402;0.016;2024-03-08T08:01:07;6.50;99.90
24902;DHT22;31328;51.402;0.016;2024-03-08T08:03:33;6.60;99.90
24902;DHT22;31328;51.402;0.016;2024-03-08T08:05:59;6.60;99.90
24902;DHT22;31328;51.402;0.016;2024-03-08T08:08:26;6.70;99.90
24902;DHT22;31328;51.402;0.016;2024-03-08T08:10:52;6.70;99.90
24902;DHT22;31328;51.402;0.016;2024-03-08T08:13:19;6.80;99.90
24902;DHT22;31328;51.402;0.016;2024-03-08T08:15:45;6.80;99.90
24902;DHT22;31328;51.402;0.016;2024-03-08T08:18:12;6.90;99.90
24902;DHT22;31328;51.402;0.016;2024-03-08T08:20:38;6.90;99.90
24902;DHT22;31328;51.402;0.016;2024-03-08T08:23:04;7.00;99.90
24902;DHT22;31328;51.402;0.016;2024-03-08T08:25:31;7.00;99.90
24902;DHT22;31328;51.402;0.016;2024-03-08T08:27:57;7.00;99.90
24902;DHT22;31328;51.402;0.016;2024-03-08T08:30:23;7.10;99.90
24902;DHT22;31328;51.402;0.016;2024-03-08T08:32:50;7.10;99.90
24902;DHT22;31328;51.402;0.016;2024-03-08T08:35:16;7.10;99.90
24902;DHT22;31328;51.402;0.016;2024-03-08T08:37:44;7.20;99.90
24902;DHT22;31328;51.402;0.016;2024-03-08T08:40:11;7.20;99.90
24902;DHT22;31328;51.402;0.016;2024-03-08T08:42:40;7.30;99.90
24902;DHT22;31328;51.402;0.016;2024-03-08T08:45:08;7.30;99.90
24902;DHT22;31328;51.402;0.016;2024-03-08T08:47:38;7.40;99.90
24902;DHT22;31328;51.402;0.016;2024-03-08T08:50:04;7.40;99.90
24902;DHT22;31328;51.402;0.016;2024-03-08T08:52:31;7.40;99.90
24902;DHT22;31328;51.402;0.016;2024-03-08T08:54:58;7.50;99.90
24902;DHT22;31328;51.402;0.016;2024-03-08T08:57:24;7.50;99.90
24902;DHT22;31328;51.402;0.016;2024-03-08T08:59:51;7.50;99.90
24902;DHT22;31328;51.402;0.016;2024-03-08T09:02:17;7.60;99.90
24902;DHT22;31328;51.402;0.016;2024-03-08T09:04:47;7.60;99.90
24902;DHT22;31328;51.402;0.016;2024-03-08T09:07:14;7.70;99.90
24902;DHT22;31328;51.402;0.016;2024-03-08T09:09:42;7.70;99.90
24902;DHT22;31328;51.402;0.016;2024-03-08T09:12:09;7.80;99.90
24902;DHT22;31328;51.402;0.016;2024-03-08T09:14:42;7.80;99.90
24902;DHT22;31328;51.402;0.016;2024-03-08T09:17:09;7.90;99.90
24902;DHT22;31328;51.402;0.016;2024-03-08T09:19:35;8.00;99.90
24902;DHT22;31328;51.402;0.016;2024-03-08T09:22:03;8.00;99.90
24902;DHT22;31328;51.402;0.016;2024-03-08T09:24:30;8.20;99.90
24902;DHT22;31328;51.402;0.016;2024-03-08T09:26:57;8.20;99.90
24902;DHT22;31328;51.402;0.016;2024-03-08T09:29:24;8.30;99.90
24902;DHT22;31328;51.402;0.016;2024-03-08T09:31:51;8.40;99.90
24902;DHT22;31328;51.402;0.016;2024-03-08T09:34:17;8.40;99.90
24902;DHT22;31328;51.402;0.016;2024-03-08T09:36:44;8.50;99.90
24902;DHT22;31328;51.402;0.016;2024-03-08T09:39:11;8.50;99.90
24902;DHT22;31328;51.402;0.016;2024-03-08T09:41:43;8.50;99.90
24902;DHT22;31328;51.402;0.016;2024-03-08T09:44:10;8.50;99.90
24902;DHT22;31328;51.402;0.016;2024-03-08T09:46:36;8.50;99.90
24902;DHT22;31328;51.402;0.016;2024-03-08T09:49:03;8.50;99.90
24902;DHT22;31328;51.402;0.016;2024-03-08T09:51:34;8.60;99.90
24902;DHT22;31328;51.402;0.016;2024-03-08T09:54:02;8.60;99.90
24902;DHT22;31328;51.402;0.016;2024-03-08T09:56:32;8.60;99.90
24902;DHT22;31328;51.402;0.016;2024-03-08T09:59:02;8.70;99.90
24902;DHT22;31328;51.402;0.016;2024-03-08T10:01:37;8.70;99.90
24902;DHT22;31328;51.402;0.016;2024-03-08T10:04:05;8.70;99.90
24902;DHT22;31328;51.402;0.016;2024-03-08T10:06:32;8.80;99.90
24902;DHT22;31328;51.402;0.016;2024-03-08T10:08:59;8.80;99.90
24902;DHT22;31328;51.402;0.016;2024-03-08T10:11:25;8.90;99.90
24902;DHT22;31328;51.402;0.016;2024-03-08T10:13:53;9.00;99.90
24902;DHT22;31328;51.402;0.016;2024-03-08T10:16:19;9.10;99.90
24902;DHT22;31328;51.402;0.016;2024-03-08T10:18:46;9.10;99.90
24902;DHT22;31328;51.402;0.016;2024-03-08T10:21:12;9.20;99.90
24902;DHT22;31328;51.402;0.016;2024-03-08T10:23:41;9.30;99.90
24902;DHT22;31328;51.402;0.016;2024-03-08T10:26:13;9.40;99.90
24902;DHT22;31328;51.402;0.016;2024-03-08T10:28:42;9.50;99.90
24902;DHT22;31328;51.402;0.016;2024-03-08T10:31:09;9.50;99.90
24902;DHT22;31328;51.402;0.016;2024-03-08T10:33:36;9.50;99.90
24902;DHT22;31328;51.402;0.016;2024-03-08T10:36:06;9.50;99.90
24902;DHT22;31328;51.402;0.016;2024-03-08T10:38:37;9.50;99.90
24902;DHT22;31328;51.402;0.016;2024-03-08T10:41:07;9.50;99.90
24902;DHT22;31328;51.402;0.016;2024-03-08T10:48:58;9.70;99.90
24902;DHT22;31328;51.402;0.016;2024-03-08T10:51:29;9.70;99.90
24902;DHT22;31328;51.402;0.016;2024-03-08T10:53:57;9.80;99.90
24902;DHT22;31328;51.402;0.016;2024-03-08T10:56:25;9.90;99.90
24902;DHT22;31328;51.402;0.016;2024-03-08T10:58:55;10.00;99.90
24902;DHT22;31328;51.402;0.016;2024-03-08T11:01:21;10.10;99.90
24902;DHT22;31328;51.402;0.016;2024-03-08T11:03:48;10.10;99.90
24902;DHT22;31328;51.402;0.016;2024-03-08T11:09:29;10.20;99.90
24902;DHT22;31328;51.402;0.016;2024-03-08T11:14:50;10.20;99.90
24902;DHT22;31328;51.402;0.016;2024-03-08T11:17:21;10.20;99.90
24902;DHT22;31328;51.402;0.016;2024-03-08T11:19:49;10.30;99.90
24902;DHT22;31328;51.402;0.016;2024-03-08T11:22:29;10.20;99.90
24902;DHT22;31328;51.402;0.016;2024-03-08T11:25:01;10.20;99.90
24902;DHT22;31328;51.402;0.016;2024-03-08T11:27:31;10.20;99.90
24902;DHT22;31328;51.402;0.016;2024-03-08T11:30:05;10.20;99.90
24902;DHT22;31328;51.402;0.016;2024-03-08T11:32:38;10.20;99.90
24902;DHT22;31328;51.402;0.016;2024-03-08T11:35:10;10.20;99.90
24902;DHT22;31328;51.402;0.016;2024-03-08T11:37:44;10.30;99.90
24902;DHT22;31328;51.402;0.016;2024-03-08T11:40:14;10.40;99.90
24902;DHT22;31328;51.402;0.016;2024-03-08T11:42:46;10.40;99.90
24902;DHT22;31328;51.402;0.016;2024-03-08T11:45:18;10.50;99.90
24902;DHT22;31328;51.402;0.016;2024-03-08T11:47:47;10.50;99.90
24902;DHT22;31328;51.402;0.016;2024-03-08T11:50:14;10.50;99.90
24902;DHT22;31328;51.402;0.016;2024-03-08T11:52:41;10.60;99.90
24902;DHT22;31328;51.402;0.016;2024-03-08T11:55:09;10.60;99.90
24902;DHT22;31328;51.402;0.016;2024-03-08T11:57:36;10.60;99.90
24902;DHT22;31328;51.402;0.016;2024-03-08T12:00:02;10.50;99.90
24902;DHT22;31328;51.402;0.016;2024-03-08T12:02:34;10.50;99.90
24902;DHT22;31328;51.402;0.016;2024-03-08T12:05:06;10.50;99.90
24902;DHT22;31328;51.402;0.016;2024-03-08T12:07:35;10.60;99.90
24902;DHT22;31328;51.402;0.016;2024-03-08T12:10:34;10.60;99.90
24902;DHT22;31328;51.402;0.016;2024-03-08T12:13:01;10.60;99.90
24902;DHT22;31328;51.402;0.016;2024-03-08T12:15:29;10.60;99.90
24902;DHT22;31328;51.402;0.016;2024-03-08T12:17:58;10.60;99.90
24902;DHT22;31328;51.402;0.016;2024-03-08T12:20:28;10.60;99.90
24902;DHT22;31328;51.402;0.016;2024-03-08T12:22:58;10.60;99.90
24902;DHT22;31328;51.402;0.016;2024-03-08T12:25:32;10.50;99.90
24902;DHT22;31328;51.402;0.016;2024-03-08T12:28:11;10.60;99.90
24902;DHT22;31328;51.402;0.016;2024-03-08T12:30:51;10.60;99.90
24902;DHT22;31328;51.402;0.016;2024-03-08T12:33:20;10.60;99.90
24902;DHT22;31328;51.402;0.016;2024-03-08T12:35:53;10.60;99.90
24902;DHT22;31328;51.402;0.016;2024-03-08T12:38:23;10.70;99.90
24902;DHT22;31328;51.402;0.016;2024-03-08T12:40:55;10.80;99.90
24902;DHT22;31328;51.402;0.016;2024-03-08T12:43:21;10.80;99.90
24902;DHT22;31328;51.402;0.016;2024-03-08T12:45:48;10.80;99.90
24902;DHT22;31328;51.402;0.016;2024-03-08T12:48:14;10.80;99.90
24902;DHT22;31328;51.402;0.016;2024-03-08T12:50:41;10.70;99.90
24902;DHT22;31328;51.402;0.016;2024-03-08T12:53:11;10.70;99.90
24902;DHT22;31328;51.402;0.016;2024-03-08T12:55:37;10.70;99.90
24902;DHT22;31328;51.402;0.016;2024-03-08T12:58:04;10.80;99.90
24902;DHT22;31328;51.402;0.016;2024-03-08T13:00:34;10.80;99.90
24902;DHT22;31328;51.402;0.016;2024-03-08T13:03:03;10.70;99.90
24902;DHT22;31328;51.402;0.016;2024-03-08T13:05:29;10.60;99.90
24902;DHT22;31328;51.402;0.016;2024-03-08T13:07:56;10.60;99.90
24902;DHT22;31328;51.402;0.016;2024-03-08T13:10:23;10.60;99.90
24902;DHT22;31328;51.402;0.016;2024-03-08T13:12:49;10.60;99.90
24902;DHT22;31328;51.402;0.016;2024-03-08T13:15:15;10.50;99.90
24902;DHT22;31328;51.402;0.016;2024-03-08T13:17:47;10.50;99.90
24902;DHT22;31328;51.402;0.016;2024-03-08T13:20:14;10.50;99.90
24902;DHT22;31328;51.402;0.016;2024-03-08T13:22:48;10.40;99.90
24902;DHT22;31328;51.402;0.016;2024-03-08T13:25:14;10.40;99.90
24902;DHT22;31328;51.402;0.016;2024-03-08T13:27:41;10.30;99.90
24902;DHT22;31328;51.402;0.016;2024-03-08T13:30:10;10.20;99.90
24902;DHT22;31328;51.402;0.016;2024-03-08T13:32:40;10.10;99.90
24902;DHT22;31328;51.402;0.016;2024-03-08T13:35:12;10.00;99.90
24902;DHT22;31328;51.402;0.016;2024-03-08T13:37:40;10.00;99.90
24902;DHT22;31328;51.402;0.016;2024-03-08T13:40:08;9.90;99.90
24902;DHT22;31328;51.402;0.016;2024-03-08T13:42:40;9.80;99.90
24902;DHT22;31328;51.402;0.016;2024-03-08T13:45:10;9.80;99.90
24902;DHT22;31328;51.402;0.016;2024-03-08T13:47:40;9.80;99.90
24902;DHT22;31328;51.402;0.016;2024-03-08T13:50:08;9.70;99.90
24902;DHT22;31328;51.402;0.016;2024-03-08T13:52:38;9.70;99.90
24902;DHT22;31328;51.402;0.016;2024-03-08T13:55:05;9.50;99.90
24902;DHT22;31328;51.402;0.016;2024-03-08T13:57:32;9.40;99.90
24902;DHT22;31328;51.402;0.016;2024-03-08T13:59:59;9.30;99.90
24902;DHT22;31328;51.402;0.016;2024-03-08T14:02:25;9.30;99.90
24902;DHT22;31328;51.402;0.016;2024-03-08T14:04:54;9.20;99.90
24902;DHT22;31328;51.402;0.016;2024-03-08T14:07:21;9.20;99.90
24902;DHT22;31328;51.402;0.016;2024-03-08T14:09:49;9.20;99.90
24902;DHT22;31328;51.402;0.016;2024-03-08T14:12:19;9.20;99.90
24902;DHT22;31328;51.402;0.016;2024-03-08T14:14:45;9.20;99.90
24902;DHT22;31328;51.402;0.016;2024-03-08T14:17:12;9.30;99.90
24902;DHT22;31328;51.402;0.016;2024-03-08T14:19:43;9.30;99.90
24902;DHT22;31328;51.402;0.016;2024-03-08T14:22:09;9.30;99.90
24902;DHT22;31328;51.402;0.016;2024-03-08T14:24:41;9.30;99.90
24902;DHT22;31328;51.402;0.016;2024-03-08T14:27:08;9.40;99.90
24902;DHT22;31328;51.402;0.016;2024-03-08T14:29:36;9.40;99.90
24902;DHT22;31328;51.402;0.016;2024-03-08T14:32:02;9.40;99.90
24902;DHT22;31328;51.402;0.016;2024-03-08T14:34:32;9.50;99.90
24902;DHT22;31328;51.402;0.016;2024-03-08T14:37:00;9.50;99.90
24902;DHT22;31328;51.402;0.016;2024-03-08T14:39:27;9.50;99.90
24902;DHT22;31328;51.402;0.016;2024-03-08T14:41:55;9.60;99.90
24902;DHT22;31328;51.402;0.016;2024-03-08T14:44:24;9.50;99.90
24902;DHT22;31328;51.402;0.016;2024-03-08T14:46:58;9.50;99.90
24902;DHT22;31328;51.402;0.016;2024-03-08T14:49:25;9.50;99.90
24902;DHT22;31328;51.402;0.016;2024-03-08T14:51:55;9.50;99.90
24902;DHT22;31328;51.402;0.016;2024-03-08T14:54:24;9.60;99.90
24902;DHT22;31328;51.402;0.016;2024-03-08T14:56:50;9.60;99.90
24902;DHT22;31328;51.402;0.016;2024-03-08T14:59:17;9.60;99.90
24902;DHT22;31328;51.402;0.016;2024-03-08T15:01:46;9.60;99.90
24902;DHT22;31328;51.402;0.016;2024-03-08T15:04:13;9.50;99.90
24902;DHT22;31328;51.402;0.016;2024-03-08T15:06:40;9.50;99.90
24902;DHT22;31328;51.402;0.016;2024-03-08T15:09:08;9.50;99.90
24902;DHT22;31328;51.402;0.016;2024-03-08T15:11:47;9.40;99.90
24902;DHT22;31328;51.402;0.016;2024-03-08T15:14:15;9.30;99.90
24902;DHT22;31328;51.402;0.016;2024-03-08T15:16:45;9.30;99.90
24902;DHT22;31328;51.402;0.016;2024-03-08T15:19:13;9.20;99.90
24902;DHT22;31328;51.402;0.016;2024-03-08T15:21:41;9.20;99.90
24902;DHT22;31328;51.402;0.016;2024-03-08T15:24:11;9.20;99.90
24902;DHT22;31328;51.402;0.016;2024-03-08T15:26:41;9.20;99.90
24902;DHT22;31328;51.402;0.016;2024-03-08T15:29:09;9.20;99.90
24902;DHT22;31328;51.402;0.016;2024-03-08T15:31:35;9.20;99.90
24902;DHT22;31328;51.402;0.016;2024-03-08T15:34:04;9.20;99.90
24902;DHT22;31328;51.402;0.016;2024-03-08T15:36:33;9.20;99.90
24902;DHT22;31328;51.402;0.016;2024-03-08T15:39:00;9.20;99.90
24902;DHT22;31328;51.402;0.016;2024-03-08T15:41:27;9.20;99.90
24902;DHT22;31328;51.402;0.016;2024-03-08T15:43:53;9.20;99.90
24902;DHT22;31328;51.402;0.016;2024-03-08T15:46:21;9.20;99.90
24902;DHT22;31328;51.402;0.016;2024-03-08T15:48:50;9.10;99.90
24902;DHT22;31328;51.402;0.016;2024-03-08T15:51:17;9.10;99.90
24902;DHT22;31328;51.402;0.016;2024-03-08T15:53:45;9.10;99.90
24902;DHT22;31328;51.402;0.016;2024-03-08T15:56:19;9.10;99.90
24902;DHT22;31328;51.402;0.016;2024-03-08T15:58:50;9.10;99.90